sensor_id;sensor_type;location;lat;lon;timestamp;P1;durP1;ratioP1;P2;durP2;ratioP2
20344;SDS011;10330;48.816;9.278;2022-07-18T00:00:13;2.67;;;1.63;;
20344;SDS011;10330;48.816;9.278;2022-07-18T00:02:39;1.45;;;1.35;;
20344;SDS011;10330;48.816;9.278;2022-07-18T00:05:06;2.53;;;2.00;;
20344;SDS011;10330;48.816;9.278;2022-07-18T00:07:33;1.73;;;1.63;;
20344;SDS011;10330;48.816;9.278;2022-07-18T00:09:59;5.97;;;1.92;;
20344;SDS011;10330;48.816;9.278;2022-07-18T00:12:26;1.92;;;1.83;;
20344;SDS011;10330;48.816;9.278;2022-07-18T00:14:52;2.90;;;1.75;;
20344;SDS011;10330;48.816;9.278;2022-07-18T00:17:19;8.05;;;1.92;;
20344;SDS011;10330;48.816;9.278;2022-07-18T00:19:45;2.90;;;1.67;;
20344;SDS011;10330;48.816;9.278;2022-07-18T00:22:11;4.93;;;1.52;;
20344;SDS011;10330;48.816;9.278;2022-07-18T00:24:41;1.70;;;1.58;;
20344;SDS011;10330;48.816;9.278;2022-07-18T00:27:07;3.80;;;1.60;;
20344;SDS011;10330;48.816;9.278;2022-07-18T00:29:34;1.77;;;1.67;;
20344;SDS011;10330;48.816;9.278;2022-07-18T00:32:05;2.85;;;1.77;;
20344;SDS011;10330;48.816;9.278;2022-07-18T00:34:32;1.85;;;1.65;;
20344;SDS011;10330;48.816;9.278;2022-07-18T00:36:59;3.13;;;1.85;;
20344;SDS011;10330;48.816;9.278;2022-07-18T00:39:26;3.60;;;1.90;;
20344;SDS011;10330;48.816;9.278;2022-07-18T00:41:52;3.67;;;1.70;;
20344;SDS011;10330;48.816;9.278;2022-07-18T00:44:19;6.18;;;1.77;;
20344;SDS011;10330;48.816;9.278;2022-07-18T00:46:51;3.92;;;1.55;;
20344;SDS011;10330;48.816;9.278;2022-07-18T00:49:44;1.63;;;1.40;;
20344;SDS011;10330;48.816;9.278;2022-07-18T00:52:12;1.50;;;1.50;;
20344;SDS011;10330;48.816;9.278;2022-07-18T00:54:39;1.80;;;1.67;;
20344;SDS011;10330;48.816;9.278;2022-07-18T00:57:05;1.95;;;1.85;;
20344;SDS011;10330;48.816;9.278;2022-07-18T00:59:31;2.47;;;1.70;;
20344;SDS011;10330;48.816;9.278;2022-07-18T01:02:17;2.20;;;2.00;;
20344;SDS011;10330;48.816;9.278;2022-07-18T01:04:43;2.88;;;2.03;;
20344;SDS011;10330;48.816;9.278;2022-07-18T01:07:09;2.10;;;1.77;;
20344;SDS011;10330;48.816;9.278;2022-07-18T01:09:36;2.25;;;1.90;;
20344;SDS011;10330;48.816;9.278;2022-07-18T01:12:02;1.80;;;1.70;;
20344;SDS011;10330;48.816;9.278;2022-07-18T01:14:30;5.10;;;1.80;;
20344;SDS011;10330;48.816;9.278;2022-07-18T01:16:56;2.17;;;1.80;;
20344;SDS011;10330;48.816;9.278;2022-07-18T01:19:23;1.95;;;1.80;;
20344;SDS011;10330;48.816;9.278;2022-07-18T01:21:49;1.52;;;1.42;;
20344;SDS011;10330;48.816;9.278;2022-07-18T01:24:15;2.08;;;1.88;;
20344;SDS011;10330;48.816;9.278;2022-07-18T01:26:41;3.60;;;1.80;;
20344;SDS011;10330;48.816;9.278;2022-07-18T01:29:07;2.00;;;1.90;;
20344;SDS011;10330;48.816;9.278;2022-07-18T01:31:34;3.47;;;2.35;;
20344;SDS011;10330;48.816;9.278;2022-07-18T01:34:00;7.10;;;2.20;;
20344;SDS011;10330;48.816;9.278;2022-07-18T01:36:27;3.90;;;2.35;;
20344;SDS011;10330;48.816;9.278;2022-07-18T01:38:53;7.13;;;2.60;;
20344;SDS011;10330;48.816;9.278;2022-07-18T01:41:19;6.78;;;2.45;;
20344;SDS011;10330;48.816;9.278;2022-07-18T01:43:46;6.68;;;2.58;;
20344;SDS011;10330;48.816;9.278;2022-07-18T01:46:12;7.43;;;2.67;;
20344;SDS011;10330;48.816;9.278;2022-07-18T01:48:38;4.32;;;2.20;;
20344;SDS011;10330;48.816;9.278;2022-07-18T01:51:05;5.95;;;2.40;;
20344;SDS011;10330;48.816;9.278;2022-07-18T01:53:39;5.80;;;2.15;;
20344;SDS011;10330;48.816;9.278;2022-07-18T01:56:07;4.55;;;1.77;;
20344;SDS011;10330;48.816;9.278;2022-07-18T01:58:33;3.67;;;1.83;;
20344;SDS011;10330;48.816;9.278;2022-07-18T02:01:00;4.70;;;1.83;;
20344;SDS011;10330;48.816;9.278;2022-07-18T02:03:41;2.45;;;1.92;;
20344;SDS011;10330;48.816;9.278;2022-07-18T02:06:08;2.75;;;1.67;;
20344;SDS011;10330;48.816;9.278;2022-07-18T02:08:34;8.57;;;1.60;;
20344;SDS011;10330;48.816;9.278;2022-07-18T02:11:00;3.17;;;1.60;;
20344;SDS011;10330;48.816;9.278;2022-07-18T02:13:26;2.28;;;1.73;;
20344;SDS011;10330;48.816;9.278;2022-07-18T02:15:53;2.10;;;1.90;;
20344;SDS011;10330;48.816;9.278;2022-07-18T02:18:21;2.58;;;1.73;;
20344;SDS011;10330;48.816;9.278;2022-07-18T02:20:47;4.15;;;1.70;;
20344;SDS011;10330;48.816;9.278;2022-07-18T02:23:13;5.22;;;1.60;;
20344;SDS011;10330;48.816;9.278;2022-07-18T02:25:39;1.42;;;1.33;;
20344;SDS011;10330;48.816;9.278;2022-07-18T02:28:06;2.15;;;1.73;;
20344;SDS011;10330;48.816;9.278;2022-07-18T02:30:32;4.43;;;1.70;;
20344;SDS011;10330;48.816;9.278;2022-07-18T02:32:58;1.80;;;1.70;;
20344;SDS011;10330;48.816;9.278;2022-07-18T02:35:24;1.50;;;1.50;;
20344;SDS011;10330;48.816;9.278;2022-07-18T02:37:51;1.42;;;1.33;;
20344;SDS011;10330;48.816;9.278;2022-07-18T02:40:17;5.85;;;1.80;;
20344;SDS011;10330;48.816;9.278;2022-07-18T02:42:43;3.97;;;1.67;;
20344;SDS011;10330;48.816;9.278;2022-07-18T02:45:09;2.38;;;1.40;;
20344;SDS011;10330;48.816;9.278;2022-07-18T02:47:36;4.65;;;2.03;;
20344;SDS011;10330;48.816;9.278;2022-07-18T02:50:02;1.77;;;1.20;;
20344;SDS011;10330;48.816;9.278;2022-07-18T02:52:29;3.17;;;1.60;;
20344;SDS011;10330;48.816;9.278;2022-07-18T02:54:55;4.75;;;1.63;;
20344;SDS011;10330;48.816;9.278;2022-07-18T02:57:22;2.03;;;1.58;;
20344;SDS011;10330;48.816;9.278;2022-07-18T02:59:52;2.13;;;2.03;;
20344;SDS011;10330;48.816;9.278;2022-07-18T03:02:18;3.90;;;1.48;;
20344;SDS011;10330;48.816;9.278;2022-07-18T03:04:44;2.67;;;2.20;;
20344;SDS011;10330;48.816;9.278;2022-07-18T03:07:11;2.95;;;2.22;;
20344;SDS011;10330;48.816;9.278;2022-07-18T03:09:37;4.30;;;1.90;;
20344;SDS011;10330;48.816;9.278;2022-07-18T03:12:03;4.53;;;1.80;;
20344;SDS011;10330;48.816;9.278;2022-07-18T03:14:30;2.08;;;1.75;;
20344;SDS011;10330;48.816;9.278;2022-07-18T03:16:56;2.40;;;1.90;;
20344;SDS011;10330;48.816;9.278;2022-07-18T03:19:22;5.07;;;2.15;;
20344;SDS011;10330;48.816;9.278;2022-07-18T03:21:49;1.83;;;1.60;;
20344;SDS011;10330;48.816;9.278;2022-07-18T03:24:15;2.55;;;1.67;;
20344;SDS011;10330;48.816;9.278;2022-07-18T03:26:42;4.82;;;2.20;;
20344;SDS011;10330;48.816;9.278;2022-07-18T03:29:09;1.60;;;1.38;;
20344;SDS011;10330;48.816;9.278;2022-07-18T03:31:36;1.88;;;1.73;;
20344;SDS011;10330;48.816;9.278;2022-07-18T03:34:03;1.50;;;1.30;;
20344;SDS011;10330;48.816;9.278;2022-07-18T03:36:29;3.13;;;1.88;;
20344;SDS011;10330;48.816;9.278;2022-07-18T03:38:56;2.80;;;1.65;;
20344;SDS011;10330;48.816;9.278;2022-07-18T03:41:22;2.47;;;2.10;;
20344;SDS011;10330;48.816;9.278;2022-07-18T03:43:48;3.35;;;1.98;;
20344;SDS011;10330;48.816;9.278;2022-07-18T03:46:14;2.28;;;1.55;;
20344;SDS011;10330;48.816;9.278;2022-07-18T03:48:40;1.60;;;1.50;;
20344;SDS011;10330;48.816;9.278;2022-07-18T03:51:07;3.22;;;1.67;;
20344;SDS011;10330;48.816;9.278;2022-07-18T03:53:33;2.38;;;1.58;;
20344;SDS011;10330;48.816;9.278;2022-07-18T03:55:59;7.65;;;1.80;;
20344;SDS011;10330;48.816;9.278;2022-07-18T03:58:25;3.03;;;1.55;;
20344;SDS011;10330;48.816;9.278;2022-07-18T04:00:52;4.07;;;2.17;;
20344;SDS011;10330;48.816;9.278;2022-07-18T04:03:18;7.43;;;1.85;;
20344;SDS011;10330;48.816;9.278;2022-07-18T04:05:44;1.80;;;1.58;;
20344;SDS011;10330;48.816;9.278;2022-07-18T04:08:11;2.00;;;1.48;;
20344;SDS011;10330;48.816;9.278;2022-07-18T04:10:37;2.33;;;2.08;;
20344;SDS011;10330;48.816;9.278;2022-07-18T04:13:05;1.50;;;1.40;;
20344;SDS011;10330;48.816;9.278;2022-07-18T04:15:33;1.35;;;1.35;;
20344;SDS011;10330;48.816;9.278;2022-07-18T04:17:59;3.83;;;1.50;;
20344;SDS011;10330;48.816;9.278;2022-07-18T04:20:25;2.83;;;1.73;;
20344;SDS011;10330;48.816;9.278;2022-07-18T04:22:53;2.25;;;1.73;;
20344;SDS011;10330;48.816;9.278;2022-07-18T04:25:21;5.88;;;1.52;;
20344;SDS011;10330;48.816;9.278;2022-07-18T04:27:49;6.72;;;1.95;;
20344;SDS011;10330;48.816;9.278;2022-07-18T04:30:17;2.78;;;1.50;;
20344;SDS011;10330;48.816;9.278;2022-07-18T04:32:45;4.10;;;1.17;;
20344;SDS011;10330;48.816;9.278;2022-07-18T04:35:12;3.03;;;1.30;;
20344;SDS011;10330;48.816;9.278;2022-07-18T04:37:41;1.73;;;1.25;;
20344;SDS011;10330;48.816;9.278;2022-07-18T04:40:08;1.52;;;1.13;;
20344;SDS011;10330;48.816;9.278;2022-07-18T04:42:35;3.55;;;1.50;;
20344;SDS011;10330;48.816;9.278;2022-07-18T04:45:02;1.70;;;1.55;;
20344;SDS011;10330;48.816;9.278;2022-07-18T04:47:30;4.82;;;1.40;;
20344;SDS011;10330;48.816;9.278;2022-07-18T04:49:57;1.13;;;1.02;;
20344;SDS011;10330;48.816;9.278;2022-07-18T04:52:23;4.55;;;1.50;;
20344;SDS011;10330;48.816;9.278;2022-07-18T04:54:49;2.05;;;1.20;;
20344;SDS011;10330;48.816;9.278;2022-07-18T04:57:18;1.70;;;1.48;;
20344;SDS011;10330;48.816;9.278;2022-07-18T04:59:45;3.58;;;1.40;;
20344;SDS011;10330;48.816;9.278;2022-07-18T05:02:11;1.55;;;1.45;;
20344;SDS011;10330;48.816;9.278;2022-07-18T05:04:38;3.75;;;1.77;;
20344;SDS011;10330;48.816;9.278;2022-07-18T05:07:05;1.75;;;1.65;;
20344;SDS011;10330;48.816;9.278;2022-07-18T05:09:32;3.28;;;1.58;;
20344;SDS011;10330;48.816;9.278;2022-07-18T05:11:59;8.50;;;1.75;;
20344;SDS011;10330;48.816;9.278;2022-07-18T05:14:25;3.90;;;1.42;;
20344;SDS011;10330;48.816;9.278;2022-07-18T05:16:51;6.82;;;1.95;;
20344;SDS011;10330;48.816;9.278;2022-07-18T05:19:19;3.28;;;1.58;;
20344;SDS011;10330;48.816;9.278;2022-07-18T05:21:45;12.52;;;2.55;;
20344;SDS011;10330;48.816;9.278;2022-07-18T05:24:12;6.65;;;2.10;;
20344;SDS011;10330;48.816;9.278;2022-07-18T05:29:34;2.88;;;1.88;;
20344;SDS011;10330;48.816;9.278;2022-07-18T05:32:01;3.30;;;1.85;;
20344;SDS011;10330;48.816;9.278;2022-07-18T05:34:28;3.03;;;1.35;;
20344;SDS011;10330;48.816;9.278;2022-07-18T05:36:54;6.07;;;1.85;;
20344;SDS011;10330;48.816;9.278;2022-07-18T05:39:20;2.30;;;1.52;;
20344;SDS011;10330;48.816;9.278;2022-07-18T05:41:47;9.00;;;1.95;;
20344;SDS011;10330;48.816;9.278;2022-07-18T05:44:13;2.28;;;1.92;;
20344;SDS011;10330;48.816;9.278;2022-07-18T05:46:39;3.75;;;1.50;;
20344;SDS011;10330;48.816;9.278;2022-07-18T05:49:05;6.47;;;1.73;;
20344;SDS011;10330;48.816;9.278;2022-07-18T05:51:32;9.65;;;1.90;;
20344;SDS011;10330;48.816;9.278;2022-07-18T05:53:58;10.60;;;2.03;;
20344;SDS011;10330;48.816;9.278;2022-07-18T05:56:24;4.60;;;2.25;;
20344;SDS011;10330;48.816;9.278;2022-07-18T05:58:50;14.70;;;2.28;;
20344;SDS011;10330;48.816;9.278;2022-07-18T06:01:17;6.38;;;2.22;;
20344;SDS011;10330;48.816;9.278;2022-07-18T06:03:46;11.13;;;3.13;;
20344;SDS011;10330;48.816;9.278;2022-07-18T06:06:13;7.22;;;2.50;;
20344;SDS011;10330;48.816;9.278;2022-07-18T06:08:40;9.65;;;2.30;;
20344;SDS011;10330;48.816;9.278;2022-07-18T06:11:07;32.50;;;16.30;;
20344;SDS011;10330;48.816;9.278;2022-07-18T06:13:34;32.70;;;15.25;;
20344;SDS011;10330;48.816;9.278;2022-07-18T06:16:02;12.98;;;6.10;;
20344;SDS011;10330;48.816;9.278;2022-07-18T06:18:30;6.55;;;4.13;;
20344;SDS011;10330;48.816;9.278;2022-07-18T06:20:56;18.25;;;7.20;;
20344;SDS011;10330;48.816;9.278;2022-07-18T06:23:22;41.58;;;3.97;;
20344;SDS011;10330;48.816;9.278;2022-07-18T06:25:48;25.17;;;9.57;;
20344;SDS011;10330;48.816;9.278;2022-07-18T06:28:14;25.88;;;8.65;;
20344;SDS011;10330;48.816;9.278;2022-07-18T06:30:41;11.52;;;6.20;;
20344;SDS011;10330;48.816;9.278;2022-07-18T06:33:07;6.03;;;2.72;;
20344;SDS011;10330;48.816;9.278;2022-07-18T06:35:33;10.77;;;7.03;;
20344;SDS011;10330;48.816;9.278;2022-07-18T06:38:00;12.80;;;6.00;;
20344;SDS011;10330;48.816;9.278;2022-07-18T06:40:41;5.20;;;4.55;;
20344;SDS011;10330;48.816;9.278;2022-07-18T06:43:07;17.02;;;3.35;;
20344;SDS011;10330;48.816;9.278;2022-07-18T06:45:34;5.70;;;2.17;;
20344;SDS011;10330;48.816;9.278;2022-07-18T06:48:01;17.85;;;8.70;;
20344;SDS011;10330;48.816;9.278;2022-07-18T06:50:27;8.02;;;5.05;;
20344;SDS011;10330;48.816;9.278;2022-07-18T06:52:54;4.85;;;3.15;;
20344;SDS011;10330;48.816;9.278;2022-07-18T06:55:24;3.10;;;2.22;;
20344;SDS011;10330;48.816;9.278;2022-07-18T06:57:50;3.00;;;1.80;;
20344;SDS011;10330;48.816;9.278;2022-07-18T07:00:17;2.80;;;2.05;;
20344;SDS011;10330;48.816;9.278;2022-07-18T07:02:44;3.22;;;2.28;;
20344;SDS011;10330;48.816;9.278;2022-07-18T07:05:15;2.58;;;1.90;;
20344;SDS011;10330;48.816;9.278;2022-07-18T07:07:42;2.03;;;1.92;;
20344;SDS011;10330;48.816;9.278;2022-07-18T07:10:10;3.83;;;1.95;;
20344;SDS011;10330;48.816;9.278;2022-07-18T07:12:41;6.35;;;2.17;;
20344;SDS011;10330;48.816;9.278;2022-07-18T07:15:18;1.90;;;1.80;;
20344;SDS011;10330;48.816;9.278;2022-07-18T07:17:45;6.47;;;2.13;;
20344;SDS011;10330;48.816;9.278;2022-07-18T07:20:12;2.10;;;2.00;;
20344;SDS011;10330;48.816;9.278;2022-07-18T07:22:45;3.35;;;1.52;;
20344;SDS011;10330;48.816;9.278;2022-07-18T07:25:16;6.80;;;1.83;;
20344;SDS011;10330;48.816;9.278;2022-07-18T07:27:43;7.05;;;1.90;;
20344;SDS011;10330;48.816;9.278;2022-07-18T07:30:11;2.03;;;1.77;;
20344;SDS011;10330;48.816;9.278;2022-07-18T07:32:39;4.75;;;2.40;;
20344;SDS011;10330;48.816;9.278;2022-07-18T07:35:08;9.80;;;2.88;;
20344;SDS011;10330;48.816;9.278;2022-07-18T07:37:42;10.38;;;2.38;;
20344;SDS011;10330;48.816;9.278;2022-07-18T07:40:10;5.40;;;2.20;;
20344;SDS011;10330;48.816;9.278;2022-07-18T07:42:37;4.95;;;2.10;;
20344;SDS011;10330;48.816;9.278;2022-07-18T07:45:03;2.65;;;1.80;;
20344;SDS011;10330;48.816;9.278;2022-07-18T07:47:30;2.38;;;1.70;;
20344;SDS011;10330;48.816;9.278;2022-07-18T07:49:58;10.73;;;1.75;;
20344;SDS011;10330;48.816;9.278;2022-07-18T07:52:25;5.22;;;1.63;;
20344;SDS011;10330;48.816;9.278;2022-07-18T07:54:53;6.15;;;1.80;;
20344;SDS011;10330;48.816;9.278;2022-07-18T07:57:20;5.13;;;1.88;;
20344;SDS011;10330;48.816;9.278;2022-07-18T07:59:46;2.38;;;1.77;;
20344;SDS011;10330;48.816;9.278;2022-07-18T08:02:13;4.97;;;1.98;;
20344;SDS011;10330;48.816;9.278;2022-07-18T08:04:40;3.97;;;2.15;;
20344;SDS011;10330;48.816;9.278;2022-07-18T08:07:06;2.97;;;2.33;;
20344;SDS011;10330;48.816;9.278;2022-07-18T08:09:34;4.35;;;1.83;;
20344;SDS011;10330;48.816;9.278;2022-07-18T08:12:00;1.73;;;1.50;;
20344;SDS011;10330;48.816;9.278;2022-07-18T08:14:26;5.53;;;1.88;;
20344;SDS011;10330;48.816;9.278;2022-07-18T08:16:52;3.88;;;2.00;;
20344;SDS011;10330;48.816;9.278;2022-07-18T08:19:19;8.10;;;1.80;;
20344;SDS011;10330;48.816;9.278;2022-07-18T08:21:45;8.80;;;1.83;;
20344;SDS011;10330;48.816;9.278;2022-07-18T08:24:11;8.10;;;1.92;;
20344;SDS011;10330;48.816;9.278;2022-07-18T08:26:37;1.50;;;1.40;;
20344;SDS011;10330;48.816;9.278;2022-07-18T08:29:05;1.63;;;1.50;;
20344;SDS011;10330;48.816;9.278;2022-07-18T08:31:32;1.23;;;1.23;;
20344;SDS011;10330;48.816;9.278;2022-07-18T08:33:59;4.10;;;2.03;;
20344;SDS011;10330;48.816;9.278;2022-07-18T08:36:25;4.93;;;2.08;;
20344;SDS011;10330;48.816;9.278;2022-07-18T08:38:52;4.95;;;1.90;;
20344;SDS011;10330;48.816;9.278;2022-07-18T08:41:18;7.80;;;1.92;;
20344;SDS011;10330;48.816;9.278;2022-07-18T08:43:49;6.28;;;2.35;;
20344;SDS011;10330;48.816;9.278;2022-07-18T08:46:17;1.90;;;1.80;;
20344;SDS011;10330;48.816;9.278;2022-07-18T08:48:48;2.65;;;1.52;;
20344;SDS011;10330;48.816;9.278;2022-07-18T08:51:16;5.38;;;1.83;;
20344;SDS011;10330;48.816;9.278;2022-07-18T08:53:46;14.23;;;2.05;;
20344;SDS011;10330;48.816;9.278;2022-07-18T08:56:20;2.22;;;2.03;;
20344;SDS011;10330;48.816;9.278;2022-07-18T08:58:47;9.63;;;2.33;;
20344;SDS011;10330;48.816;9.278;2022-07-18T09:01:13;8.52;;;1.80;;
20344;SDS011;10330;48.816;9.278;2022-07-18T09:03:39;1.90;;;1.77;;
20344;SDS011;10330;48.816;9.278;2022-07-18T09:06:07;1.98;;;1.88;;
20344;SDS011;10330;48.816;9.278;2022-07-18T09:08:37;3.75;;;1.77;;
20344;SDS011;10330;48.816;9.278;2022-07-18T09:11:04;8.57;;;1.60;;
20344;SDS011;10330;48.816;9.278;2022-07-18T09:13:38;3.05;;;2.00;;
20344;SDS011;10330;48.816;9.278;2022-07-18T09:16:07;2.22;;;1.85;;
20344;SDS011;10330;48.816;9.278;2022-07-18T09:18:44;5.78;;;2.13;;
20344;SDS011;10330;48.816;9.278;2022-07-18T09:21:19;10.43;;;2.47;;
20344;SDS011;10330;48.816;9.278;2022-07-18T09:23:47;1.90;;;1.80;;
20344;SDS011;10330;48.816;9.278;2022-07-18T09:29:06;4.95;;;1.60;;
20344;SDS011;10330;48.816;9.278;2022-07-18T09:31:35;4.97;;;1.80;;
20344;SDS011;10330;48.816;9.278;2022-07-18T09:34:02;3.72;;;1.95;;
20344;SDS011;10330;48.816;9.278;2022-07-18T09:36:29;2.47;;;1.70;;
20344;SDS011;10330;48.816;9.278;2022-07-18T09:38:59;7.18;;;2.00;;
20344;SDS011;10330;48.816;9.278;2022-07-18T09:41:32;2.72;;;1.92;;
20344;SDS011;10330;48.816;9.278;2022-07-18T09:43:58;2.08;;;1.75;;
20344;SDS011;10330;48.816;9.278;2022-07-18T09:46:58;10.18;;;2.05;;
20344;SDS011;10330;48.816;9.278;2022-07-18T09:49:31;5.57;;;1.83;;
20344;SDS011;10330;48.816;9.278;2022-07-18T09:52:06;2.17;;;1.98;;
20344;SDS011;10330;48.816;9.278;2022-07-18T09:57:26;3.67;;;1.80;;
20344;SDS011;10330;48.816;9.278;2022-07-18T09:59:52;2.97;;;1.27;;
20344;SDS011;10330;48.816;9.278;2022-07-18T10:02:19;2.38;;;1.60;;
20344;SDS011;10330;48.816;9.278;2022-07-18T10:04:46;1.65;;;1.55;;
20344;SDS011;10330;48.816;9.278;2022-07-18T10:07:13;1.63;;;1.52;;
20344;SDS011;10330;48.816;9.278;2022-07-18T10:09:46;4.80;;;1.25;;
20344;SDS011;10330;48.816;9.278;2022-07-18T10:12:15;2.70;;;1.35;;
20344;SDS011;10330;48.816;9.278;2022-07-18T10:14:42;2.78;;;1.80;;
20344;SDS011;10330;48.816;9.278;2022-07-18T10:17:10;1.48;;;1.40;;
20344;SDS011;10330;48.816;9.278;2022-07-18T10:19:36;1.38;;;1.38;;
20344;SDS011;10330;48.816;9.278;2022-07-18T10:22:02;1.55;;;1.52;;
20344;SDS011;10330;48.816;9.278;2022-07-18T10:24:32;2.42;;;1.40;;
20344;SDS011;10330;48.816;9.278;2022-07-18T10:27:11;1.45;;;1.35;;
20344;SDS011;10330;48.816;9.278;2022-07-18T10:32:35;3.55;;;1.65;;
20344;SDS011;10330;48.816;9.278;2022-07-18T10:35:02;8.43;;;1.40;;
20344;SDS011;10330;48.816;9.278;2022-07-18T10:37:29;2.25;;;1.55;;
20344;SDS011;10330;48.816;9.278;2022-07-18T10:46:05;3.42;;;1.50;;
20344;SDS011;10330;48.816;9.278;2022-07-18T10:51:13;1.83;;;1.58;;
20344;SDS011;10330;48.816;9.278;2022-07-18T10:56:20;1.70;;;1.30;;
20344;SDS011;10330;48.816;9.278;2022-07-18T10:59:17;5.38;;;1.38;;
20344;SDS011;10330;48.816;9.278;2022-07-18T11:01:51;3.55;;;1.65;;
20344;SDS011;10330;48.816;9.278;2022-07-18T11:06:54;2.17;;;1.63;;
20344;SDS011;10330;48.816;9.278;2022-07-18T11:09:41;2.78;;;1.60;;
20344;SDS011;10330;48.816;9.278;2022-07-18T11:12:23;4.57;;;2.03;;
20344;SDS011;10330;48.816;9.278;2022-07-18T11:15:08;1.40;;;1.30;;
20344;SDS011;10330;48.816;9.278;2022-07-18T11:17:57;3.03;;;1.50;;
20344;SDS011;10330;48.816;9.278;2022-07-18T11:20:35;2.08;;;1.52;;
20344;SDS011;10330;48.816;9.278;2022-07-18T11:23:21;2.90;;;1.73;;
20344;SDS011;10330;48.816;9.278;2022-07-18T11:25:53;1.40;;;1.40;;
20344;SDS011;10330;48.816;9.278;2022-07-18T11:28:22;1.48;;;1.48;;
20344;SDS011;10330;48.816;9.278;2022-07-18T11:30:59;6.38;;;1.75;;
20344;SDS011;10330;48.816;9.278;2022-07-18T11:33:27;1.63;;;1.30;;
20344;SDS011;10330;48.816;9.278;2022-07-18T11:36:10;3.10;;;1.50;;
20344;SDS011;10330;48.816;9.278;2022-07-18T11:41:13;2.55;;;1.45;;
20344;SDS011;10330;48.816;9.278;2022-07-18T11:43:40;2.40;;;1.70;;
20344;SDS011;10330;48.816;9.278;2022-07-18T11:46:10;1.40;;;1.40;;
20344;SDS011;10330;48.816;9.278;2022-07-18T11:48:40;1.40;;;1.23;;
20344;SDS011;10330;48.816;9.278;2022-07-18T11:51:11;1.77;;;1.45;;
20344;SDS011;10330;48.816;9.278;2022-07-18T11:53:53;1.60;;;1.50;;
20344;SDS011;10330;48.816;9.278;2022-07-18T11:56:20;1.50;;;1.40;;
20344;SDS011;10330;48.816;9.278;2022-07-18T11:58:48;1.85;;;1.70;;
20344;SDS011;10330;48.816;9.278;2022-07-18T12:01:16;1.85;;;1.70;;
20344;SDS011;10330;48.816;9.278;2022-07-18T12:03:44;1.38;;;1.27;;
20344;SDS011;10330;48.816;9.278;2022-07-18T12:06:21;4.32;;;1.98;;
20344;SDS011;10330;48.816;9.278;2022-07-18T12:08:56;1.42;;;1.33;;
20344;SDS011;10330;48.816;9.278;2022-07-18T12:11:29;8.55;;;6.20;;
20344;SDS011;10330;48.816;9.278;2022-07-18T12:16:47;2.30;;;2.10;;
20344;SDS011;10330;48.816;9.278;2022-07-18T12:19:31;5.40;;;1.80;;
20344;SDS011;10330;48.816;9.278;2022-07-18T12:22:12;1.65;;;1.55;;
20344;SDS011;10330;48.816;9.278;2022-07-18T12:24:51;3.10;;;1.60;;
20344;SDS011;10330;48.816;9.278;2022-07-18T12:27:33;1.90;;;1.42;;
20344;SDS011;10330;48.816;9.278;2022-07-18T12:30:11;4.97;;;1.45;;
20344;SDS011;10330;48.816;9.278;2022-07-18T12:32:39;2.97;;;1.40;;
20344;SDS011;10330;48.816;9.278;2022-07-18T12:35:13;2.10;;;1.42;;
20344;SDS011;10330;48.816;9.278;2022-07-18T12:38:02;3.88;;;1.10;;
20344;SDS011;10330;48.816;9.278;2022-07-18T12:43:28;2.53;;;1.55;;
20344;SDS011;10330;48.816;9.278;2022-07-18T12:46:07;1.48;;;1.45;;
20344;SDS011;10330;48.816;9.278;2022-07-18T12:48:35;1.55;;;1.45;;
20344;SDS011;10330;48.816;9.278;2022-07-18T12:53:31;3.00;;;1.10;;
20344;SDS011;10330;48.816;9.278;2022-07-18T12:55:58;3.22;;;1.50;;
20344;SDS011;10330;48.816;9.278;2022-07-18T12:58:25;9.50;;;2.22;;
20344;SDS011;10330;48.816;9.278;2022-07-18T13:00:51;2.13;;;1.45;;
20344;SDS011;10330;48.816;9.278;2022-07-18T13:03:21;1.33;;;1.27;;
20344;SDS011;10330;48.816;9.278;2022-07-18T13:05:47;1.92;;;1.40;;
20344;SDS011;10330;48.816;9.278;2022-07-18T13:08:14;4.70;;;1.33;;
20344;SDS011;10330;48.816;9.278;2022-07-18T13:10:41;4.63;;;1.73;;
20344;SDS011;10330;48.816;9.278;2022-07-18T13:13:08;2.75;;;1.88;;
20344;SDS011;10330;48.816;9.278;2022-07-18T13:15:35;3.58;;;1.48;;
20344;SDS011;10330;48.816;9.278;2022-07-18T13:18:03;5.97;;;1.63;;
20344;SDS011;10330;48.816;9.278;2022-07-18T13:20:32;3.95;;;1.80;;
20344;SDS011;10330;48.816;9.278;2022-07-18T13:22:58;2.72;;;1.40;;
20344;SDS011;10330;48.816;9.278;2022-07-18T13:25:29;4.07;;;2.10;;
20344;SDS011;10330;48.816;9.278;2022-07-18T13:28:00;2.67;;;1.70;;
20344;SDS011;10330;48.816;9.278;2022-07-18T13:30:27;1.80;;;1.70;;
20344;SDS011;10330;48.816;9.278;2022-07-18T13:32:56;2.47;;;1.52;;
20344;SDS011;10330;48.816;9.278;2022-07-18T13:35:22;1.35;;;1.25;;
20344;SDS011;10330;48.816;9.278;2022-07-18T13:37:49;2.80;;;1.30;;
20344;SDS011;10330;48.816;9.278;2022-07-18T13:40:16;10.00;;;1.33;;
20344;SDS011;10330;48.816;9.278;2022-07-18T13:42:44;2.08;;;1.35;;
20344;SDS011;10330;48.816;9.278;2022-07-18T13:45:10;3.08;;;1.42;;
20344;SDS011;10330;48.816;9.278;2022-07-18T13:47:39;1.23;;;1.23;;
20344;SDS011;10330;48.816;9.278;2022-07-18T13:50:07;3.55;;;1.35;;
20344;SDS011;10330;48.816;9.278;2022-07-18T13:52:34;1.80;;;1.70;;
20344;SDS011;10330;48.816;9.278;2022-07-18T13:55:00;1.20;;;1.20;;
20344;SDS011;10330;48.816;9.278;2022-07-18T13:57:27;1.73;;;1.67;;
20344;SDS011;10330;48.816;9.278;2022-07-18T13:59:53;1.20;;;1.10;;
20344;SDS011;10330;48.816;9.278;2022-07-18T14:02:19;2.05;;;1.27;;
20344;SDS011;10330;48.816;9.278;2022-07-18T14:04:46;1.35;;;1.25;;
20344;SDS011;10330;48.816;9.278;2022-07-18T14:07:12;2.72;;;1.25;;
20344;SDS011;10330;48.816;9.278;2022-07-18T14:09:43;1.50;;;1.40;;
20344;SDS011;10330;48.816;9.278;2022-07-18T14:12:10;2.35;;;1.48;;
20344;SDS011;10330;48.816;9.278;2022-07-18T14:14:37;5.07;;;1.15;;
20344;SDS011;10330;48.816;9.278;2022-07-18T14:17:03;1.15;;;1.10;;
20344;SDS011;10330;48.816;9.278;2022-07-18T14:19:30;2.45;;;1.65;;
20344;SDS011;10330;48.816;9.278;2022-07-18T14:21:56;1.70;;;1.05;;
20344;SDS011;10330;48.816;9.278;2022-07-18T14:24:22;1.40;;;1.30;;
20344;SDS011;10330;48.816;9.278;2022-07-18T14:29:22;1.48;;;1.38;;
20344;SDS011;10330;48.816;9.278;2022-07-18T14:31:48;1.33;;;0.95;;
20344;SDS011;10330;48.816;9.278;2022-07-18T14:34:15;1.65;;;1.25;;
20344;SDS011;10330;48.816;9.278;2022-07-18T14:36:42;1.02;;;1.02;;
20344;SDS011;10330;48.816;9.278;2022-07-18T14:39:08;4.90;;;1.30;;
20344;SDS011;10330;48.816;9.278;2022-07-18T14:41:34;1.88;;;0.93;;
20344;SDS011;10330;48.816;9.278;2022-07-18T14:44:00;3.97;;;1.20;;
20344;SDS011;10330;48.816;9.278;2022-07-18T14:46:27;1.00;;;1.00;;
20344;SDS011;10330;48.816;9.278;2022-07-18T14:48:53;4.32;;;1.40;;
20344;SDS011;10330;48.816;9.278;2022-07-18T14:55:05;9.10;;;1.55;;
20344;SDS011;10330;48.816;9.278;2022-07-18T14:57:32;2.85;;;1.10;;
20344;SDS011;10330;48.816;9.278;2022-07-18T15:00:09;1.40;;;1.30;;
20344;SDS011;10330;48.816;9.278;2022-07-18T15:02:36;1.38;;;1.27;;
20344;SDS011;10330;48.816;9.278;2022-07-18T15:05:04;7.20;;;1.30;;
20344;SDS011;10330;48.816;9.278;2022-07-18T15:07:31;2.20;;;0.98;;
20344;SDS011;10330;48.816;9.278;2022-07-18T15:09:58;5.18;;;1.10;;
20344;SDS011;10330;48.816;9.278;2022-07-18T15:15:46;4.97;;;2.55;;
20344;SDS011;10330;48.816;9.278;2022-07-18T15:18:16;1.10;;;1.10;;
20344;SDS011;10330;48.816;9.278;2022-07-18T15:20:42;1.60;;;1.20;;
20344;SDS011;10330;48.816;9.278;2022-07-18T15:23:08;3.42;;;1.52;;
20344;SDS011;10330;48.816;9.278;2022-07-18T15:25:35;6.25;;;1.52;;
20344;SDS011;10330;48.816;9.278;2022-07-18T15:28:01;4.53;;;1.27;;
20344;SDS011;10330;48.816;9.278;2022-07-18T15:30:27;4.07;;;1.23;;
20344;SDS011;10330;48.816;9.278;2022-07-18T15:32:53;1.00;;;1.00;;
20344;SDS011;10330;48.816;9.278;2022-07-18T15:35:20;2.17;;;1.20;;
20344;SDS011;10330;48.816;9.278;2022-07-18T15:37:46;1.15;;;1.10;;
20344;SDS011;10330;48.816;9.278;2022-07-18T15:40:12;1.38;;;0.93;;